Time;durP1;ratioP1;P1;durP2;ratioP2;P2;SDS_P1;SDS_P2;PMS_P1;PMS_P2;Temp;Humidity;BMP_temperature;BMP_pressure;BME280_temperature;BME280_humidity;BME280_pressure;Samples;Min_cycle;Max_cycle;Signal;HPM_P1;HPM_P2
2021/05/09 00:00:42;;;;;;;10.73;3.90;;;14.00;68.80;;;;;;4998198;28;20030;-71
2021/05/09 00:03:07;;;;;;;8.80;3.70;;;14.10;68.80;;;;;;4998345;28;20057;-71
2021/05/09 00:05:33;;;;;;;10.23;3.30;;;14.00;69.20;;;;;;4998471;28;20508;-70
2021/05/09 00:07:59;;;;;;;7.97;3.67;;;14.00;69.00;;;;;;4998221;28;20018;-71
2021/05/09 00:10:25;;;;;;;6.78;4.10;;;14.00;68.00;;;;;;4998091;28;20104;-71
2021/05/09 00:12:52;;;;;;;8.93;3.80;;;14.00;68.20;;;;;;4998211;28;20018;-71
2021/05/09 00:15:23;;;;;;;7.63;3.53;;;14.00;67.80;;;;;;4997997;28;20026;-70
2021/05/09 00:17:49;;;;;;;9.68;3.70;;;14.00;67.90;;;;;;4998397;28;20027;-71
2021/05/09 00:20:15;;;;;;;7.90;4.25;;;14.00;67.80;;;;;;4998106;28;20118;-71
2021/05/09 00:22:41;;;;;;;6.55;3.78;;;14.00;68.20;;;;;;4998016;28;20027;-71
2021/05/09 00:25:08;;;;;;;6.72;3.42;;;14.00;68.10;;;;;;4997648;28;20109;-71
2021/05/09 00:27:34;;;;;;;9.65;4.03;;;14.00;67.30;;;;;;4998023;28;20482;-71
2021/05/09 00:29:59;;;;;;;10.30;3.30;;;14.00;67.40;;;;;;4997777;28;20100;-70
2021/05/09 00:32:25;;;;;;;9.05;4.05;;;13.90;67.60;;;;;;4998108;28;20033;-71
2021/05/09 00:34:51;;;;;;;8.00;3.50;;;13.90;67.90;;;;;;4980392;28;20033;-71
2021/05/09 00:37:17;;;;;;;8.52;4.10;;;13.90;67.90;;;;;;4998120;28;20362;-71
2021/05/09 00:39:44;;;;;;;6.18;3.40;;;13.90;68.30;;;;;;4997890;28;20030;-70
2021/05/09 00:42:10;;;;;;;7.68;3.47;;;13.90;67.80;;;;;;4998041;28;20433;-71
2021/05/09 00:44:36;;;;;;;7.32;3.17;;;13.90;67.10;;;;;;4997836;28;20030;-71
2021/05/09 00:47:07;;;;;;;7.57;3.05;;;13.90;66.50;;;;;;4998014;28;20477;-71
2021/05/09 00:49:33;;;;;;;6.13;3.13;;;14.00;66.20;;;;;;4997737;28;20469;-71
2021/05/09 00:52:01;;;;;;;6.30;3.45;;;14.00;65.80;;;;;;4997942;28;20049;-71
2021/05/09 00:54:28;;;;;;;6.90;3.60;;;14.00;66.40;;;;;;4997526;28;20018;-70
2021/05/09 00:56:56;;;;;;;8.68;4.03;;;13.90;66.00;;;;;;4997808;28;20023;-71
2021/05/09 00:59:23;;;;;;;6.85;3.90;;;13.90;66.70;;;;;;4997724;28;20035;-71
2021/05/09 01:01:49;;;;;;;7.05;3.58;;;13.90;66.50;;;;;;4997783;28;20496;-70
2021/05/09 01:04:16;;;;;;;8.52;3.95;;;13.90;66.30;;;;;;4980495;28;20037;-70
2021/05/09 01:06:43;;;;;;;7.70;3.63;;;13.80;66.60;;;;;;4997805;28;20023;-70
2021/05/09 01:09:09;;;;;;;6.63;4.10;;;13.80;66.20;;;;;;4997463;28;20089;-71
2021/05/09 01:11:36;;;;;;;9.75;3.45;;;13.80;66.70;;;;;;4997722;28;20023;-71
2021/05/09 01:14:02;;;;;;;7.72;3.45;;;13.80;67.60;;;;;;4980160;28;20033;-70
2021/05/09 01:16:28;;;;;;;6.80;3.33;;;13.70;66.40;;;;;;4976840;28;20083;-71
2021/05/09 01:18:54;;;;;;;7.15;3.50;;;13.70;66.10;;;;;;4978181;28;20453;-70
2021/05/09 01:21:20;;;;;;;10.57;3.88;;;13.60;66.00;;;;;;4978175;28;20033;-71
2021/05/09 01:23:46;;;;;;;6.38;3.33;;;13.60;66.00;;;;;;4977314;28;20117;-71
2021/05/09 01:26:12;;;;;;;6.05;3.72;;;13.60;66.00;;;;;;4978082;28;20069;-71
2021/05/09 01:28:37;;;;;;;7.28;3.65;;;13.60;66.00;;;;;;4978262;28;20077;-71
2021/05/09 01:31:03;;;;;;;7.13;3.38;;;13.60;66.00;;;;;;4977992;28;20027;-71
2021/05/09 01:33:29;;;;;;;7.28;3.40;;;13.60;65.70;;;;;;4978079;28;20512;-71
2021/05/09 01:35:55;;;;;;;10.18;3.70;;;13.60;65.70;;;;;;4978320;28;20027;-70
2021/05/09 01:38:21;;;;;;;7.38;3.80;;;13.70;65.80;;;;;;4981116;28;20023;-71
2021/05/09 01:40:47;;;;;;;8.80;3.33;;;13.70;65.70;;;;;;4981462;28;20030;-71
2021/05/09 01:43:13;;;;;;;7.80;3.63;;;13.70;65.90;;;;;;4981450;28;20381;-71
2021/05/09 01:45:39;;;;;;;7.10;4.00;;;13.70;65.90;;;;;;4979969;28;20102;-71
2021/05/09 01:48:05;;;;;;;5.82;3.55;;;13.70;65.80;;;;;;4981644;28;20022;-71
2021/05/09 01:50:31;;;;;;;5.88;3.03;;;13.70;65.90;;;;;;4981394;28;20020;-71
2021/05/09 01:53:00;;;;;;;6.60;3.67;;;13.70;65.90;;;;;;4981069;28;20015;-71
2021/05/09 01:55:26;;;;;;;9.13;3.63;;;13.70;65.90;;;;;;4981207;28;20029;-71
2021/05/09 01:57:52;;;;;;;7.82;3.63;;;13.70;66.10;;;;;;4981423;28;20482;-71
2021/05/09 02:00:20;;;;;;;7.97;3.72;;;13.60;66.80;;;;;;4981056;28;20031;-71
2021/05/09 02:02:46;;;;;;;10.13;3.58;;;13.60;66.20;;;;;;4981248;28;20019;-71
2021/05/09 02:05:13;;;;;;;7.97;4.28;;;13.60;66.50;;;;;;4981230;28;20057;-71
2021/05/09 02:07:39;;;;;;;7.22;3.65;;;13.60;66.30;;;;;;4981153;28;20041;-71
2021/05/09 02:10:07;;;;;;;7.95;4.05;;;13.60;66.50;;;;;;4980973;28;20382;-71
2021/05/09 02:12:33;;;;;;;6.38;4.07;;;13.60;66.30;;;;;;4981228;28;20077;-71
2021/05/09 02:14:59;;;;;;;7.40;3.80;;;13.60;66.20;;;;;;4979372;28;20031;-71
2021/05/09 02:17:24;;;;;;;6.72;3.72;;;13.60;66.10;;;;;;4996946;28;20050;-71
2021/05/09 02:19:50;;;;;;;7.72;3.67;;;13.60;66.10;;;;;;5000265;28;20035;-71
2021/05/09 02:22:16;;;;;;;7.32;3.80;;;13.60;65.90;;;;;;4999947;28;20030;-71
2021/05/09 02:24:45;;;;;;;6.95;3.53;;;13.60;65.80;;;;;;4999745;28;20105;-71
2021/05/09 02:27:11;;;;;;;8.43;3.83;;;13.60;65.80;;;;;;5000338;28;20022;-71
2021/05/09 02:29:37;;;;;;;8.63;4.30;;;13.60;65.70;;;;;;4999718;28;20600;-71
2021/05/09 02:32:04;;;;;;;10.57;4.18;;;13.60;66.50;;;;;;5000052;28;20485;-71
2021/05/09 02:34:35;;;;;;;5.95;3.60;;;13.60;67.70;;;;;;4982374;28;20389;-71
2021/05/09 02:37:02;;;;;;;6.63;4.13;;;13.60;66.90;;;;;;4999993;28;20091;-71
2021/05/09 02:39:28;;;;;;;9.93;4.80;;;13.60;66.80;;;;;;4999668;28;20023;-71
2021/05/09 02:41:53;;;;;;;8.15;4.53;;;13.60;66.90;;;;;;4999977;28;20105;-71
2021/05/09 02:44:19;;;;;;;7.35;3.70;;;13.50;66.90;;;;;;4999609;28;20031;-71
2021/05/09 02:46:45;;;;;;;6.75;4.13;;;13.50;66.60;;;;;;4999957;28;20501;-70
2021/05/09 02:49:11;;;;;;;11.68;4.40;;;13.50;66.70;;;;;;4998420;28;20037;-71
2021/05/09 02:51:37;;;;;;;10.90;4.88;;;13.40;67.00;;;;;;5000038;28;20024;-71
2021/05/09 02:54:03;;;;;;;9.68;5.30;;;13.40;68.70;;;;;;4999298;28;20102;-70
2021/05/09 02:56:29;;;;;;;11.05;4.75;;;13.30;69.50;;;;;;4999606;28;20030;-71
2021/05/09 02:58:55;;;;;;;11.68;5.03;;;13.20;69.30;;;;;;4999372;28;20038;-71
2021/05/09 03:01:21;;;;;;;8.75;5.32;;;13.20;69.30;;;;;;4999393;28;20031;-71
2021/05/09 03:03:46;;;;;;;9.32;4.85;;;13.20;69.50;;;;;;4999216;28;20050;-71
2021/05/09 03:06:12;;;;;;;9.05;4.97;;;13.20;70.20;;;;;;4999242;28;20031;-71
2021/05/09 03:08:38;;;;;;;8.52;5.05;;;13.20;70.10;;;;;;4999113;28;20026;-71
2021/05/09 03:11:04;;;;;;;8.13;4.50;;;13.10;69.70;;;;;;4999593;28;20057;-71
2021/05/09 03:13:30;;;;;;;9.50;5.00;;;13.10;69.50;;;;;;4999072;28;20920;-71
2021/05/09 03:15:58;;;;;;;8.77;4.40;;;13.10;69.30;;;;;;4998963;28;20054;-71
2021/05/09 03:18:24;;;;;;;7.85;4.55;;;13.10;68.40;;;;;;4999188;28;20030;-71
2021/05/09 03:20:50;;;;;;;8.65;4.35;;;13.10;68.70;;;;;;4999127;28;20037;-71
2021/05/09 03:23:16;;;;;;;8.25;4.57;;;13.20;68.40;;;;;;4998286;28;20480;-71
2021/05/09 03:25:41;;;;;;;10.30;4.25;;;13.20;69.40;;;;;;4999097;28;20024;-71
2021/05/09 03:28:07;;;;;;;7.43;4.18;;;13.20;69.10;;;;;;4998751;28;20019;-71
2021/05/09 03:30:33;;;;;;;7.22;3.70;;;13.20;68.80;;;;;;4998981;28;20076;-71
2021/05/09 03:32:59;;;;;;;9.55;4.53;;;13.20;68.80;;;;;;4998644;28;20081;-71
2021/05/09 03:35:25;;;;;;;9.70;4.35;;;13.20;69.40;;;;;;4998784;28;20034;-71
2021/05/09 03:37:50;;;;;;;7.55;3.78;;;13.20;69.00;;;;;;4998739;28;20773;-71
2021/05/09 03:40:17;;;;;;;8.45;3.88;;;13.20;68.50;;;;;;4998477;28;20037;-71
2021/05/09 03:42:43;;;;;;;7.93;3.80;;;13.30;68.40;;;;;;4998626;28;20022;-71
2021/05/09 03:45:09;;;;;;;7.53;4.60;;;13.20;68.10;;;;;;4998568;28;20081;-71
2021/05/09 03:47:37;;;;;;;6.05;3.72;;;13.30;68.20;;;;;;4998518;28;20030;-71
2021/05/09 03:50:04;;;;;;;6.40;4.15;;;13.30;69.00;;;;;;4998441;28;20038;-71
2021/05/09 03:52:29;;;;;;;8.23;3.95;;;13.30;68.90;;;;;;4998389;28;20042;-71
2021/05/09 03:54:56;;;;;;;8.73;4.70;;;13.30;68.50;;;;;;4998405;28;20065;-71
2021/05/09 03:57:22;;;;;;;7.45;3.83;;;13.30;69.00;;;;;;4998476;28;20481;-71
2021/05/09 03:59:47;;;;;;;10.18;4.40;;;13.30;69.00;;;;;;4998223;28;20104;-71
2021/05/09 04:02:13;;;;;;;7.15;4.50;;;13.30;69.50;;;;;;4998444;28;20081;-71
2021/05/09 04:04:39;;;;;;;7.90;3.88;;;13.30;68.80;;;;;;4998379;28;20106;-71
2021/05/09 04:07:05;;;;;;;7.47;4.20;;;13.30;68.70;;;;;;4998220;28;20030;-71
2021/05/09 04:09:31;;;;;;;8.30;5.10;;;13.30;69.20;;;;;;4998208;28;20034;-71
2021/05/09 04:11:57;;;;;;;7.22;4.05;;;13.30;69.00;;;;;;4998226;28;20516;-71
2021/05/09 04:14:23;;;;;;;7.78;4.50;;;13.30;68.80;;;;;;4998228;28;20015;-71
2021/05/09 04:16:48;;;;;;;8.65;3.85;;;13.30;68.40;;;;;;4997948;28;20054;-71
2021/05/09 04:19:14;;;;;;;7.68;4.10;;;13.30;68.30;;;;;;4998187;28;20026;-71
2021/05/09 04:21:40;;;;;;;8.18;4.28;;;13.30;67.80;;;;;;4998076;28;20044;-71
2021/05/09 04:24:08;;;;;;;7.95;3.75;;;13.30;68.00;;;;;;4997303;28;20035;-71
2021/05/09 04:26:33;;;;;;;9.13;3.95;;;13.40;68.10;;;;;;4998157;28;20026;-71
2021/05/09 04:28:59;;;;;;;6.88;3.65;;;13.30;67.90;;;;;;4997984;28;20033;-71
2021/05/09 04:31:25;;;;;;;6.78;3.60;;;13.30;67.70;;;;;;4998076;28;20042;-71
2021/05/09 04:33:51;;;;;;;8.13;3.80;;;13.30;67.40;;;;;;4998195;28;20026;-71
2021/05/09 04:36:16;;;;;;;9.73;3.92;;;13.30;67.80;;;;;;4997783;28;20033;-71
2021/05/09 04:38:42;;;;;;;6.47;3.92;;;13.30;68.20;;;;;;4997881;28;20026;-71
2021/05/09 04:41:08;;;;;;;7.80;4.25;;;13.30;68.00;;;;;;4997725;28;20032;-71
2021/05/09 04:43:35;;;;;;;7.35;4.05;;;13.30;68.00;;;;;;4997963;28;20062;-71
2021/05/09 04:46:01;;;;;;;6.65;3.92;;;13.30;68.00;;;;;;4997832;28;20030;-70
2021/05/09 04:48:27;;;;;;;7.45;3.63;;;13.20;67.50;;;;;;4997983;28;20031;-71
2021/05/09 04:50:53;;;;;;;8.50;3.75;;;13.20;67.40;;;;;;4997749;28;20512;-71
2021/05/09 04:53:33;;;;;;;8.00;3.80;;;13.20;67.10;;;;;;4980060;28;20018;-70
2021/05/09 04:56:01;;;;;;;5.25;3.63;;;13.30;67.40;;;;;;4997752;28;20015;-71
2021/05/09 04:58:28;;;;;;;6.70;4.57;;;13.20;67.70;;;;;;4997859;28;20022;-71
2021/05/09 05:01:00;;;;;;;7.43;3.90;;;13.20;67.60;;;;;;4980111;28;20027;-71
2021/05/09 05:03:29;;;;;;;7.93;3.70;;;13.20;67.80;;;;;;4997911;28;20033;-71
2021/05/09 05:05:55;;;;;;;7.10;3.90;;;13.30;68.00;;;;;;4997641;28;20086;-71
2021/05/09 05:08:21;;;;;;;7.95;3.88;;;13.20;67.60;;;;;;4997465;28;20459;-71
2021/05/09 05:10:49;;;;;;;6.03;3.75;;;13.20;67.40;;;;;;4997869;28;20023;-71
2021/05/09 05:13:20;;;;;;;7.30;4.10;;;13.20;67.70;;;;;;5001591;28;20064;-71
2021/05/09 05:15:47;;;;;;;6.47;3.63;;;13.20;67.90;;;;;;5001206;28;20047;-71
2021/05/09 05:18:13;;;;;;;6.20;3.67;;;13.20;67.50;;;;;;5001547;28;20023;-71
2021/05/09 05:20:39;;;;;;;8.40;4.20;;;13.20;67.70;;;;;;5001556;28;20489;-71
2021/05/09 05:23:05;;;;;;;7.28;3.75;;;13.20;67.80;;;;;;5000478;28;20019;-71
2021/05/09 05:25:31;;;;;;;6.75;4.05;;;13.10;68.30;;;;;;5001333;28;20026;-71
2021/05/09 05:27:57;;;;;;;10.45;4.38;;;13.10;67.90;;;;;;5001648;28;20049;-71
2021/05/09 05:30:23;;;;;;;9.45;4.70;;;13.20;68.00;;;;;;5001065;28;20018;-71
2021/05/09 05:32:49;;;;;;;9.52;4.43;;;13.20;68.80;;;;;;5001179;28;20050;-71
2021/05/09 05:35:15;;;;;;;7.50;4.20;;;13.30;69.20;;;;;;5001161;28;20030;-71
2021/05/09 05:37:41;;;;;;;6.47;4.00;;;13.30;68.90;;;;;;5001122;28;20385;-71
2021/05/09 05:40:07;;;;;;;8.77;4.65;;;13.40;68.50;;;;;;5001069;28;20105;-71
2021/05/09 05:42:33;;;;;;;7.47;4.88;;;13.40;69.70;;;;;;5000942;28;20031;-71
2021/05/09 05:44:59;;;;;;;9.45;4.95;;;13.40;69.50;;;;;;5000789;28;20025;-71
2021/05/09 05:47:24;;;;;;;7.47;4.32;;;13.40;69.60;;;;;;5000810;28;20034;-71
2021/05/09 05:49:54;;;;;;;7.47;4.13;;;13.40;70.20;;;;;;5000974;28;20516;-71
2021/05/09 05:52:20;;;;;;;8.73;4.45;;;13.30;69.80;;;;;;5000877;28;20026;-71
2021/05/09 05:54:46;;;;;;;8.00;4.45;;;13.40;69.60;;;;;;5000620;28;20109;-71
2021/05/09 05:57:12;;;;;;;8.85;4.60;;;13.40;69.90;;;;;;5000778;28;20034;-71
2021/05/09 05:59:37;;;;;;;8.35;4.78;;;13.50;70.10;;;;;;5000727;28;20022;-70
2021/05/09 06:02:03;;;;;;;7.57;4.15;;;13.50;69.90;;;;;;5000514;28;20038;-71
2021/05/09 06:04:29;;;;;;;7.43;4.63;;;13.50;69.90;;;;;;5000717;28;20392;-70
2021/05/09 06:06:55;;;;;;;8.80;4.55;;;13.60;69.40;;;;;;5000418;28;20036;-71
2021/05/09 06:09:21;;;;;;;9.65;4.38;;;13.60;69.90;;;;;;5000422;28;20034;-71
2021/05/09 06:11:46;;;;;;;13.57;5.82;;;13.60;69.50;;;;;;5000561;28;20108;-70
2021/05/09 06:14:12;;;;;;;7.40;4.30;;;13.60;69.60;;;;;;5000771;28;20022;-71
2021/05/09 06:16:38;;;;;;;7.90;4.40;;;13.70;70.50;;;;;;5000308;28;20050;-70
2021/05/09 06:19:04;;;;;;;10.48;4.95;;;13.70;69.70;;;;;;5000337;28;20073;-71
2021/05/09 06:21:29;;;;;;;8.73;4.70;;;13.80;70.00;;;;;;5000322;28;20026;-71
2021/05/09 06:23:55;;;;;;;7.82;4.30;;;13.80;70.40;;;;;;4999363;28;20039;-71
2021/05/09 06:26:21;;;;;;;11.00;5.10;;;13.80;70.90;;;;;;5000115;28;20029;-71
2021/05/09 06:28:48;;;;;;;8.73;4.95;;;13.90;71.40;;;;;;5000269;28;20022;-71
2021/05/09 06:31:14;;;;;;;10.05;4.90;;;14.10;71.30;;;;;;4999836;28;20648;-71
2021/05/09 06:33:39;;;;;;;8.55;4.90;;;14.20;71.30;;;;;;5000111;28;20046;-71
2021/05/09 06:36:05;;;;;;;11.35;5.53;;;14.20;71.20;;;;;;5000004;28;20069;-71
2021/05/09 06:38:32;;;;;;;10.57;5.10;;;14.30;71.70;;;;;;4999927;28;20029;-71
2021/05/09 06:40:57;;;;;;;8.68;4.70;;;14.30;71.30;;;;;;4982667;28;20053;-71
2021/05/09 06:43:23;;;;;;;9.57;4.78;;;14.40;71.10;;;;;;4999987;28;20108;-71
2021/05/09 06:45:50;;;;;;;10.45;4.75;;;14.50;70.70;;;;;;5000053;28;20023;-71
2021/05/09 06:48:16;;;;;;;8.63;4.88;;;14.50;70.40;;;;;;4999794;28;20018;-71
2021/05/09 06:50:42;;;;;;;8.07;4.55;;;14.60;70.40;;;;;;4999540;28;20076;-71
2021/05/09 06:53:08;;;;;;;9.90;4.97;;;14.70;70.40;;;;;;4999564;28;20014;-71
2021/05/09 06:55:37;;;;;;;9.30;4.78;;;14.90;70.70;;;;;;4999762;28;20027;-71
2021/05/09 06:58:06;;;;;;;8.15;4.50;;;15.10;70.90;;;;;;4999974;28;20088;-70
2021/05/09 07:00:32;;;;;;;9.40;4.88;;;15.30;71.10;;;;;;4999268;28;20033;-70
2021/05/09 07:02:58;;;;;;;8.13;4.63;;;15.50;70.90;;;;;;4999434;28;20030;-71
2021/05/09 07:05:24;;;;;;;9.80;4.88;;;15.70;70.50;;;;;;4999420;28;20026;-71
2021/05/09 07:07:54;;;;;;;8.07;4.60;;;15.80;70.00;;;;;;4999365;28;20033;-73
2021/05/09 07:10:22;;;;;;;11.38;5.18;;;15.90;69.80;;;;;;4982585;28;20105;-70
2021/05/09 07:12:49;;;;;;;8.45;5.13;;;15.90;69.70;;;;;;4998981;28;20037;-71
2021/05/09 07:15:22;;;;;;;8.35;4.60;;;16.00;69.80;;;;;;4999248;28;20034;-73
2021/05/09 07:20:34;;;;;;;6.88;4.72;;;16.00;69.50;;;;;;4998982;28;20118;-73
2021/05/09 07:23:00;;;;;;;9.48;4.72;;;16.00;69.20;;;;;;4998403;28;20058;-72
2021/05/09 07:25:26;;;;;;;10.13;4.82;;;15.90;69.10;;;;;;4999119;28;20396;-72
2021/05/09 07:27:52;;;;;;;7.53;4.45;;;15.90;69.10;;;;;;4999023;28;20037;-74
2021/05/09 07:30:19;;;;;;;7.07;4.60;;;16.00;69.20;;;;;;4998879;28;20026;-74
2021/05/09 07:32:45;;;;;;;7.95;4.63;;;16.00;69.50;;;;;;4998868;28;20620;-74
2021/05/09 07:35:11;;;;;;;7.07;4.05;;;16.00;69.40;;;;;;4998260;28;20081;-76
2021/05/09 07:37:37;;;;;;;9.85;4.25;;;16.10;69.40;;;;;;4998735;28;20027;-75
2021/05/09 07:40:03;;;;;;;11.00;5.35;;;16.10;69.20;;;;;;4964980;28;20026;-74
2021/05/09 07:42:29;;;;;;;9.52;4.53;;;16.20;69.40;;;;;;4992001;28;20109;-76
2021/05/09 07:44:58;;;;;;;9.68;4.57;;;16.30;69.40;;;;;;4998561;28;20049;-75
2021/05/09 07:47:24;;;;;;;8.70;3.80;;;16.40;69.70;;;;;;4981142;28;20473;-75
2021/05/09 07:49:50;;;;;;;7.43;3.97;;;16.40;69.40;;;;;;4998543;28;20082;-73
2021/05/09 07:52:15;;;;;;;28.73;16.85;;;16.50;69.60;;;;;;4998459;28;20547;-73
2021/05/09 07:54:41;;;;;;;36.92;24.88;;;16.70;69.40;;;;;;4998194;28;20029;-73
2021/05/09 07:57:07;;;;;;;21.20;13.70;;;16.90;69.60;;;;;;4998515;28;20026;-73
2021/05/09 07:59:34;;;;;;;9.90;5.78;;;17.00;69.40;;;;;;4998337;28;20025;-72
2021/05/09 08:02:00;;;;;;;8.43;4.43;;;17.10;69.20;;;;;;4998668;28;20161;-72
2021/05/09 08:04:26;;;;;;;8.80;3.92;;;17.30;69.50;;;;;;4998305;28;20050;-76
2021/05/09 08:06:52;;;;;;;10.63;4.38;;;17.50;69.50;;;;;;4980261;28;20040;-73
2021/05/09 08:09:18;;;;;;;8.60;4.13;;;17.70;69.10;;;;;;4995081;28;20388;-72
2021/05/09 08:11:44;;;;;;;8.18;4.18;;;17.80;69.10;;;;;;4998349;28;20022;-72
2021/05/09 08:14:10;;;;;;;6.57;3.42;;;18.10;69.40;;;;;;4998257;28;20022;-77
2021/05/09 08:16:36;;;;;;;7.95;4.13;;;18.40;69.10;;;;;;4998123;28;20062;-78
2021/05/09 08:19:02;;;;;;;10.88;3.28;;;18.70;69.20;;;;;;4998077;28;20105;-79
2021/05/09 08:21:28;;;;;;;6.38;2.80;;;19.00;68.30;;;;;;4998012;28;20026;-80
2021/05/09 08:23:54;;;;;;;8.05;3.10;;;19.30;66.90;;;;;;4997641;28;20026;-79
2021/05/09 08:26:21;;;;;;;8.18;2.92;;;19.60;66.70;;;;;;4997947;28;20466;-79
2021/05/09 08:28:46;;;;;;;7.72;3.05;;;19.80;66.90;;;;;;4998100;28;20029;-79
2021/05/09 08:31:16;;;;;;;7.93;2.50;;;19.90;65.90;;;;;;4980548;28;20441;-74
2021/05/09 08:33:42;;;;;;;6.18;2.38;;;19.90;65.20;;;;;;4998067;28;20058;-80
2021/05/09 08:36:09;;;;;;;6.65;2.80;;;19.90;63.90;;;;;;4997828;28;20041;-76
2021/05/09 08:38:35;;;;;;;6.70;2.85;;;19.80;63.60;;;;;;4997622;28;20394;-75
2021/05/09 08:41:01;;;;;;;6.30;2.38;;;19.80;63.50;;;;;;4980462;28;20027;-75
2021/05/09 08:43:27;;;;;;;23.33;16.42;;;19.70;63.40;;;;;;4997865;28;20600;-77
2021/05/09 08:45:53;;;;;;;34.42;23.67;;;19.60;63.10;;;;;;4997859;28;20026;-76
2021/05/09 08:48:22;;;;;;;7.63;4.63;;;19.50;63.10;;;;;;5001639;28;20023;-74
2021/05/09 08:50:49;;;;;;;6.75;2.88;;;19.30;62.70;;;;;;5002030;28;20077;-73
2021/05/09 08:53:17;;;;;;;7.25;2.70;;;19.20;63.00;;;;;;5001689;28;20568;-72
2021/05/09 08:55:43;;;;;;;7.82;3.25;;;19.20;63.60;;;;;;5001551;28;20125;-72
2021/05/09 08:58:10;;;;;;;8.23;2.75;;;19.30;64.00;;;;;;5001718;28;20018;-73
2021/05/09 09:00:37;;;;;;;8.32;2.72;;;19.40;63.60;;;;;;5001468;28;20057;-72
2021/05/09 09:03:04;;;;;;;10.10;2.75;;;19.50;64.00;;;;;;5001762;28;20202;-72
2021/05/09 09:05:41;;;;;;;7.45;2.83;;;19.70;63.80;;;;;;5001520;28;20086;-72
2021/05/09 09:08:09;;;;;;;5.78;2.53;;;19.90;63.00;;;;;;5001341;28;20029;-72
2021/05/09 09:10:49;;;;;;;5.93;2.60;;;20.20;63.40;;;;;;5001320;28;20390;-72
2021/05/09 09:13:30;;;;;;;8.38;3.08;;;20.30;63.90;;;;;;5001383;28;20393;-72
2021/05/09 09:15:59;;;;;;;8.00;3.05;;;20.30;62.70;;;;;;5001328;28;20074;-72
2021/05/09 09:18:42;;;;;;;7.22;2.63;;;20.20;62.10;;;;;;5001330;28;20022;-73
2021/05/09 09:21:29;;;;;;;5.80;2.83;;;20.10;61.30;;;;;;5001524;28;20026;-73
2021/05/09 09:24:10;;;;;;;7.05;2.47;;;19.90;61.70;;;;;;5000581;28;20025;-73
2021/05/09 09:26:41;;;;;;;5.80;2.58;;;19.80;61.70;;;;;;5001037;28;20497;-73
2021/05/09 09:29:20;;;;;;;7.10;2.70;;;19.70;62.10;;;;;;5000990;28;20031;-73
2021/05/09 09:31:50;;;;;;;9.35;2.95;;;19.70;62.10;;;;;;5001217;28;20023;-72
2021/05/09 09:34:16;;;;;;;7.05;2.72;;;19.60;62.00;;;;;;5001194;28;20045;-73
2021/05/09 09:36:42;;;;;;;9.38;3.60;;;19.50;61.80;;;;;;5001070;28;20027;-73
2021/05/09 09:39:10;;;;;;;6.55;2.58;;;19.40;62.50;;;;;;5000918;28;20027;-75
2021/05/09 09:41:49;;;;;;;6.80;3.70;;;19.30;61.90;;;;;;5001026;28;20057;-74
2021/05/09 09:44:17;;;;;;;9.18;5.65;;;19.20;61.90;;;;;;5000735;28;20033;-76
2021/05/09 09:46:52;;;;;;;8.05;3.30;;;19.10;62.00;;;;;;4999776;28;20029;-76
2021/05/09 09:49:27;;;;;;;5.50;2.25;;;19.00;62.00;;;;;;4991280;28;20690;-75
2021/05/09 09:52:01;;;;;;;6.20;2.78;;;19.00;62.00;;;;;;4999618;28;20030;-75
2021/05/09 09:54:42;;;;;;;8.98;2.65;;;18.90;62.00;;;;;;5000241;28;20029;-75
2021/05/09 09:57:32;;;;;;;6.70;2.78;;;18.80;61.90;;;;;;4999782;28;20048;-75
2021/05/09 10:00:12;;;;;;;5.65;2.63;;;18.70;62.40;;;;;;4982229;28;20034;-76
2021/05/09 10:02:43;;;;;;;7.85;3.10;;;18.60;62.40;;;;;;5000154;28;20026;-76
2021/05/09 10:05:10;;;;;;;7.65;2.75;;;18.60;62.80;;;;;;5000498;28;20081;-77
2021/05/09 10:07:35;;;;;;;8.00;2.70;;;18.60;63.20;;;;;;5000190;28;20030;-76
2021/05/09 10:10:03;;;;;;;7.80;3.03;;;18.60;63.40;;;;;;5000103;28;20384;-78
2021/05/09 10:12:29;;;;;;;7.63;3.00;;;18.60;63.40;;;;;;4982749;28;20540;-77
2021/05/09 10:14:55;;;;;;;7.00;2.83;;;18.60;63.50;;;;;;4999859;28;20026;-78
2021/05/09 10:17:24;;;;;;;6.18;2.65;;;18.60;63.70;;;;;;4999530;28;20045;-78
2021/05/09 10:19:52;;;;;;;6.47;2.80;;;18.70;64.00;;;;;;5000102;28;20374;-76
2021/05/09 10:22:28;;;;;;;8.98;3.80;;;18.90;64.30;;;;;;5000044;28;20026;-76
2021/05/09 10:24:54;;;;;;;7.65;3.28;;;19.10;63.80;;;;;;4999660;28;20481;-78
2021/05/09 10:27:20;;;;;;;5.65;2.88;;;19.20;63.50;;;;;;5000226;28;20046;-76
2021/05/09 10:29:48;;;;;;;9.18;3.00;;;19.30;63.10;;;;;;4999556;28;20022;-77
2021/05/09 10:32:20;;;;;;;6.43;2.67;;;19.30;62.80;;;;;;5000003;28;20026;-77
2021/05/09 10:34:55;;;;;;;6.32;2.63;;;19.40;62.40;;;;;;4999923;28;20051;-75
2021/05/09 10:37:40;;;;;;;5.20;2.90;;;19.40;62.20;;;;;;4999758;28;20025;-74
2021/05/09 10:40:26;;;;;;;9.15;3.42;;;19.50;62.30;;;;;;4986718;28;20097;-76
2021/05/09 10:43:01;;;;;;;19.27;11.60;;;19.70;62.90;;;;;;4982054;28;20030;-73
2021/05/09 10:45:51;;;;;;;108.35;71.80;;;20.00;63.00;;;;;;4999541;28;20022;-72
2021/05/09 10:48:20;;;;;;;67.45;37.72;;;20.30;62.30;;;;;;4999575;28;20046;-76
2021/05/09 10:51:02;;;;;;;57.63;36.47;;;20.40;61.70;;;;;;4998779;28;20026;-74
2021/05/09 10:53:34;;;;;;;15.00;8.13;;;20.70;61.10;;;;;;4999006;28;20027;-74
2021/05/09 10:56:02;;;;;;;12.70;5.63;;;21.00;60.50;;;;;;4998901;28;20364;-72
2021/05/09 10:58:49;;;;;;;88.25;78.38;;;21.30;61.40;;;;;;4999117;28;20035;-74
2021/05/09 11:01:28;;;;;;;34.25;25.65;;;21.80;60.30;;;;;;4998691;28;20462;-72
2021/05/09 11:03:58;;;;;;;57.40;44.92;;;22.30;60.00;;;;;;4998702;28;20023;-74
2021/05/09 11:06:27;;;;;;;67.88;50.38;;;22.50;58.30;;;;;;4999272;28;20033;-73
2021/05/09 11:08:57;;;;;;;12.05;7.85;;;22.70;58.50;;;;;;4997913;28;20105;-76
2021/05/09 11:11:25;;;;;;;10.35;5.50;;;23.10;58.30;;;;;;4999224;28;20098;-76
2021/05/09 11:13:57;;;;;;;7.10;3.17;;;23.40;57.60;;;;;;4999053;28;20065;-76
2021/05/09 11:16:34;;;;;;;4.78;2.70;;;23.50;56.50;;;;;;4998909;28;20129;-76
2021/05/09 11:19:21;;;;;;;7.00;2.83;;;23.40;57.00;;;;;;4999179;28;20076;-77
2021/05/09 11:21:53;;;;;;;5.10;2.53;;;23.30;57.60;;;;;;4981220;28;20092;-78
2021/05/09 11:24:22;;;;;;;;;;;23.40;57.30;;;;;;4979803;28;20094;-78
2021/05/09 11:26:50;;;;;;;9.23;3.35;;;23.40;57.60;;;;;;4978735;28;19909;-75
2021/05/09 11:29:18;;;;;;;6.90;3.30;;;23.40;57.20;;;;;;4997245;28;20141;-74
2021/05/09 11:31:47;;;;;;;24.80;15.25;;;23.70;54.70;;;;;;4998812;28;20027;-74
2021/05/09 11:34:14;;;;;;;9.25;5.50;;;24.00;55.80;;;;;;4998853;28;20031;-73
2021/05/09 11:36:42;;;;;;;6.63;2.80;;;24.50;55.50;;;;;;4998658;28;20036;-73
2021/05/09 11:39:13;;;;;;;8.02;3.35;;;24.70;54.60;;;;;;4997353;28;20040;-73
2021/05/09 11:41:59;;;;;;;9.43;4.45;;;24.60;52.70;;;;;;4993723;28;20030;-73
2021/05/09 11:44:26;;;;;;;4.57;2.25;;;24.30;52.70;;;;;;4997801;28;20030;-73
2021/05/09 11:46:53;;;;;;;4.00;2.08;;;24.00;52.90;;;;;;4998233;28;20076;-73
2021/05/09 11:49:24;;;;;;;7.93;2.70;;;23.70;53.70;;;;;;4996890;28;20069;-73
2021/05/09 11:52:03;;;;;;;6.28;2.83;;;23.40;53.80;;;;;;4971498;28;20034;-73
2021/05/09 11:54:32;;;;;;;6.72;3.20;;;23.10;54.40;;;;;;4997667;28;20050;-73
2021/05/09 11:57:04;;;;;;;6.65;2.83;;;22.90;54.20;;;;;;4979365;28;20037;-73
2021/05/09 11:59:37;;;;;;;7.88;2.88;;;22.80;54.20;;;;;;4997465;28;20030;-72
2021/05/09 12:02:27;;;;;;;7.50;4.10;;;22.60;54.50;;;;;;4985677;28;20037;-73
2021/05/09 12:04:55;;;;;;;5.97;3.30;;;22.50;55.00;;;;;;4998129;28;20034;-73
2021/05/09 12:07:47;;;;;;;9.50;3.10;;;22.60;55.20;;;;;;4998272;28;20023;-73
2021/05/09 12:10:25;;;;;;;8.05;2.75;;;22.60;55.60;;;;;;4997959;28;20050;-74
2021/05/09 12:13:06;;;;;;;10.10;3.17;;;22.70;55.70;;;;;;4998044;28;20069;-72
2021/05/09 12:15:37;;;;;;;6.07;3.08;;;22.80;55.00;;;;;;4997600;28;20035;-74
2021/05/09 12:18:04;;;;;;;6.55;2.20;;;22.70;53.90;;;;;;4998108;28;20034;-73
2021/05/09 12:20:37;;;;;;;9.27;4.70;;;22.70;54.60;;;;;;4997815;28;20035;-73
2021/05/09 12:23:28;;;;;;;13.88;8.05;;;22.70;54.50;;;;;;4990887;28;20031;-73
2021/05/09 12:25:54;;;;;;;6.13;2.80;;;22.60;55.00;;;;;;4983003;28;20408;-73
2021/05/09 12:28:32;;;;;;;7.97;2.20;;;22.60;54.80;;;;;;4995543;28;20027;-73
2021/05/09 12:31:18;;;;;;;5.63;2.70;;;22.60;55.20;;;;;;4992324;28;20030;-73
2021/05/09 12:33:47;;;;;;;7.65;2.10;;;22.70;55.80;;;;;;4993011;28;20034;-73
2021/05/09 12:36:17;;;;;;;8.02;2.65;;;22.80;55.10;;;;;;4989689;28;20026;-74
2021/05/09 12:38:44;;;;;;;6.57;2.40;;;22.80;54.80;;;;;;4979278;28;20438;-73
2021/05/09 12:41:17;;;;;;;9.00;2.50;;;22.90;55.70;;;;;;4996936;28;20101;-74
2021/05/09 12:43:54;;;;;;;5.47;2.72;;;23.00;55.30;;;;;;4994832;28;20026;-73
2021/05/09 12:46:45;;;;;;;8.30;2.70;;;23.10;55.10;;;;;;4988016;28;20102;-74
2021/05/09 12:49:18;;;;;;;5.93;2.50;;;23.10;54.50;;;;;;4996273;28;20026;-73
2021/05/09 12:52:01;;;;;;;5.50;2.30;;;23.10;54.20;;;;;;4994080;28;20110;-75
2021/05/09 12:54:44;;;;;;;7.97;2.80;;;23.00;53.70;;;;;;4978510;28;20038;-74